Time;durP1;ratioP1;P1;durP2;ratioP2;P2;SDS_P1;SDS_P2;PMS_P1;PMS_P2;Temp;Humidity;BMP_temperature;BMP_pressure;BME280_temperature;BME280_humidity;BME280_pressure;Samples;Min_cycle;Max_cycle;Signal;HPM_P1;HPM_P2
2023/09/21 07:50:36;;;;;;;;;;;;;;;23.31;93.77;100575.13;1831420;76;20263;-69
2023/09/21 07:53:05;;;;;;;;;;;;;;;23.27;92.11;100575.44;1838843;76;20132;-72
2023/09/21 09:14:13;;;;;;;;;;;;;;;23.52;78.68;100578.28;1786812;78;20201;-69
2023/09/21 09:16:47;;;;;;;;;;;;;;;23.51;78.38;100580.59;1790932;78;20107;-71
2023/09/21 09:19:16;;;;;;;;;;;;;;;23.47;78.55;100580.56;1770420;80;20546;-71
2023/09/21 09:21:48;;;;;;;;;;;;;;;23.40;77.69;100576.36;1788810;79;20104;-71
2023/09/21 09:24:14;;;;;;;;;;;;;;;23.33;78.22;100573.15;1786773;78;20140;-70
2023/09/21 09:26:41;;;;;;;;;;;;;;;23.29;78.03;100573.45;1765201;79;20107;-69
2023/09/21 09:29:09;;;;;;;;;;;;;;;23.25;77.67;100570.77;1826020;76;20109;-67
2023/09/21 09:31:40;;;;;;;;;;;;;;;23.25;78.84;100582.72;1830439;76;20385;-70
2023/09/21 09:34:06;;;;;;;;;;;;;;;23.27;79.89;100576.77;1834295;76;20171;-70
2023/09/21 09:36:33;;;;;;;;;;;;;;;23.31;80.06;100581.77;1832825;76;20123;-68
2023/09/21 09:39:00;;;;;;;;;;;;;;;23.37;78.78;100579.83;1815800;76;20196;-70
2023/09/21 09:49:03;;;;;;;;;;;;;;;23.40;76.64;100569.72;1805560;77;20162;-69
2023/09/21 09:51:38;;;;;;;;;;;;;;;23.35;77.23;100569.84;1819451;77;20418;-69
2023/09/21 09:54:05;;;;;;;;;;;;;;;23.28;78.14;100564.31;1822771;76;20170;-70
2023/09/21 09:56:32;;;;;;;;;;;;;;;23.21;78.47;100563.25;1810624;77;20088;-70
2023/09/21 09:58:59;;;;;;;;;;;;;;;23.14;79.08;100570.20;1816391;77;20481;-69
2023/09/21 10:01:26;;;;;;;;;;;;;;;23.05;79.93;100561.33;1825161;77;20186;-68
2023/09/21 10:36:51;;;;;;;;;;;;;;;23.48;83.57;100536.55;1807014;78;20129;-68
2023/09/21 10:39:28;;;;;;;;;;;;;;;23.48;83.93;100536.55;1787294;78;20139;-68
2023/09/21 10:42:07;;;;;;;;;;;;;;;23.48;83.91;100533.06;1828122;77;20123;-69
2023/09/21 10:45:07;;;;;;;;;;;;;;;23.48;84.03;100531.23;1825449;76;20123;-67
2023/09/21 10:47:51;;;;;;;;;;;;;;;23.47;83.80;100529.57;1812515;76;20477;-68
2023/09/21 10:50:20;;;;;;;;;;;;;;;23.45;83.42;100530.22;1802490;76;20148;-68
2023/09/21 11:10:26;;;;;;;;;;;;;;;23.30;81.69;100525.13;1806511;77;20203;-68
2023/09/21 12:21:00;;;;;;;;;;;;;;;23.12;88.41;100470.73;1792535;79;20137;-66
2023/09/21 12:23:26;;;;;;;;;;;;;;;23.10;88.92;100475.36;1788358;76;20171;-67
2023/09/21 12:25:54;;;;;;;;;;;;;;;23.09;89.05;100480.34;1826032;77;20118;-67
2023/09/21 12:28:21;;;;;;;;;;;;;;;23.10;89.39;100473.20;1826521;76;20154;-66
2023/09/21 12:30:48;;;;;;;;;;;;;;;23.09;89.70;100471.04;1804822;77;20141;-66
2023/09/21 12:33:15;;;;;;;;;;;;;;;23.09;90.09;100475.52;1795424;77;20145;-66
2023/09/21 12:35:42;;;;;;;;;;;;;;;23.11;90.47;100470.89;1778879;80;20643;-67
2023/09/21 12:38:10;;;;;;;;;;;;;;;23.11;90.43;100473.55;1741202;80;20111;-65
2023/09/21 12:40:38;;;;;;;;;;;;;;;23.14;90.46;100470.58;1791120;79;20428;-67
2023/09/21 12:43:11;;;;;;;;;;;;;;;23.18;90.38;100465.30;1788180;79;20156;-67
2023/09/21 12:45:38;;;;;;;;;;;;;;;23.23;90.99;100474.43;1807278;78;20100;-68
2023/09/21 12:48:07;;;;;;;;;;;;;;;23.29;91.04;100463.17;1811057;78;20092;-66
2023/09/21 12:50:33;;;;;;;;;;;;;;;23.36;90.87;100466.05;1812794;78;20456;-67
2023/09/21 12:53:05;;;;;;;;;;;;;;;23.40;90.77;100462.08;1807700;78;20226;-66
2023/09/21 12:55:30;;;;;;;;;;;;;;;23.42;90.29;100455.28;1790260;78;20451;-67
2023/09/21 12:57:58;;;;;;;;;;;;;;;23.43;90.27;100463.09;1786778;78;20136;-66
2023/09/21 14:03:54;;;;;;;;;;;;;;;23.59;87.74;100423.30;1805707;78;20357;-67
2023/09/21 14:06:21;;;;;;;;;;;;;;;23.58;86.67;100420.84;1782574;79;20858;-67
